Flight Track Log - Related Links

Times and Time Zones

All times are in EDT time to prevent confusion due to time zone crossing. See the SKW3459 flight status page for this flight to view local times or setup timezone preferences in your user account.

Time Position Orientation Groundspeed Altitude Reporting Facility
EDT Latitude Longitude Course Direction KTS MPH feet Rate Location/Type
Fri 08:14:52 PM 33.8500 -118.2500 336° Northwest 209 241 3,700  Level Southern California TRACON
Fri 08:15:53 PM 33.8500 -118.3167 270° West 220 253 6,200 2,053 Climbing Southern California TRACON
Fri 08:16:08 PM 33.8447 -118.3308 246° West 220 253 6,300 1,558 Climbing Los Angeles Center
Fri 08:17:10 PM 33.8572 -118.4153 280° West 256 295 8,200 1,306 Climbing Los Angeles Center
Fri 08:18:12 PM 33.8781 -118.5292 282° West 293 337 9,000 387 Climbing Los Angeles Center
Fri 08:19:00 PM 34.2299 -118.5799 320° Northwest  Level FlightAware Approximate
Fri 08:19:14 PM 33.9142 -118.6089 299° West 276 318 9,000  Level Los Angeles Center
Fri 08:20:00 PM 34.3243 -118.6130 336° Northwest  Level FlightAware Approximate
Fri 08:20:17 PM 33.9786 -118.6731 320° Northwest 279 321 9,000  Level Los Angeles Center
Fri 08:21:19 PM 34.0550 -118.6717 North 280 322 9,000  Level Los Angeles Center
Fri 08:22:21 PM 34.1261 -118.6533 12° North 281 323 9,000 1,016 Level Los Angeles Center
Fri 08:23:23 PM 34.2050 -118.6467 North 293 337 11,100 2,419 Climbing Los Angeles Center
Fri 08:24:25 PM 34.2992 -118.6778 345° North 293 337 14,000 1,951 Climbing Los Angeles Center
Fri 08:25:26 PM 34.3675 -118.7031 343° North 312 359 15,100 1,548 Climbing Los Angeles Center
Fri 08:26:29 PM 34.4808 -118.7436 344° North 352 405 17,200 2,064 Climbing Los Angeles Center
Fri 08:27:31 PM 34.5753 -118.7783 343° North 354 407 19,400 1,984 Climbing Los Angeles Center
Fri 08:28:33 PM 34.6692 -118.8125 343° North 352 405 21,300 1,500 Climbing Los Angeles Center
Fri 08:29:47 PM 34.7644 -118.8469 343° North 354 407 22,800 1,401 Climbing Los Angeles Center
Fri 08:30:50 PM 34.8958 -118.8928 344° North 366 421 24,500 1,296 Climbing Los Angeles Center
Fri 08:31:52 PM 34.9986 -118.9294 344° North 381 438 25,500 1,065 Climbing Los Angeles Center
Fri 08:32:54 PM 35.1039 -118.9647 345° North 390 449 26,700 1,210 Climbing Los Angeles Center
Fri 08:33:56 PM 35.2081 -119.0006 344° North 389 448 28,000 629 Climbing Los Angeles Center
Fri 08:34:58 PM 35.3353 -119.0456 344° North 396 456 28,000  Level Los Angeles Center
Fri 08:36:00 PM 35.4467 -119.0864 343° North 413 475 28,000 435 Level Los Angeles Center
Fri 08:37:02 PM 35.5569 -119.1275 343° North 413 475 28,900 1,065 Climbing Los Angeles Center
Fri 08:38:04 PM 35.6628 -119.1658 344° North 400 460 30,200 1,317 Climbing Los Angeles Center
Fri 08:39:05 PM 35.7717 -119.2042 344° North 393 452 31,600 1,317 Climbing Oakland Center
Fri 08:40:07 PM 35.8750 -119.2428 343° North 392 451 32,900 1,268 Climbing Oakland Center
Fri 08:41:08 PM 35.9736 -119.2783 344° North 375 432 34,200 1,180 Climbing Oakland Center
Fri 08:42:09 PM 36.0794 -119.3150 344° North 364 419 35,300 1,024 Climbing Oakland Center
Fri 08:43:11 PM 36.1806 -119.3536 343° North 359 413 36,300 976 Climbing Oakland Center
Fri 08:44:12 PM 36.2703 -119.3886 343° North 348 400 37,300 787 Climbing Oakland Center
Fri 08:45:13 PM 36.3669 -119.4258 343° North 343 395 37,900 341 Climbing Oakland Center
Fri 08:46:15 PM 36.4561 -119.4603 343° North 343 395 38,000 49 Climbing Oakland Center
Fri 08:47:16 PM 36.5556 -119.4986 343° North 353 406 38,000  Level Oakland Center
Fri 08:48:17 PM 36.6500 -119.5347 343° North 362 417 38,000  Level Oakland Center
Fri 08:49:19 PM 36.7544 -119.5744 343° North 372 428 38,000  Level Oakland Center
Fri 08:50:20 PM 36.8597 -119.6153 343° North 379 436 38,000  Level Oakland Center
Fri 08:51:22 PM 36.9544 -119.6550 341° North 369 425 38,000  Level Oakland Center
Fri 08:52:23 PM 37.0578 -119.6950 343° North 366 421 38,000  Level Oakland Center
Fri 08:53:24 PM 37.1550 -119.7342 342° North 373 429 38,000  Level Oakland Center
Fri 08:54:26 PM 37.2594 -119.7753 343° North 372 428 38,000  Level Oakland Center
Fri 08:55:27 PM 37.3514 -119.8117 343° North 372 428 38,000  Level Oakland Center
Fri 08:56:28 PM 37.4508 -119.8492 343° North 374 430 38,000  Level Oakland Center
Fri 08:57:30 PM 37.5478 -119.8886 342° North 368 423 38,000  Level Oakland Center
Fri 08:58:31 PM 37.6469 -119.9261 343° North 371 427 38,000  Level Oakland Center
Fri 08:59:32 PM 37.7653 -119.9725 343° North 370 426 38,000  Level Oakland Center
Fri 09:00:34 PM 37.8642 -120.0075 344° North 368 423 38,000  Level Oakland Center
Fri 09:01:35 PM 37.9625 -120.0478 342° North 372 428 38,000  Level Oakland Center
Fri 09:02:36 PM 38.0622 -120.0869 343° North 374 430 38,000  Level Oakland Center
Fri 09:03:37 PM 38.1606 -120.1261 343° North 373 429 38,000  Level Oakland Center
Fri 09:04:39 PM 38.2594 -120.1656 343° North 372 428 38,000  Level Oakland Center
Fri 09:05:40 PM 38.3583 -120.2056 342° North 374 430 38,000  Level Oakland Center
Fri 09:06:41 PM 38.4567 -120.2456 342° North 374 430 38,000  Level Oakland Center
Fri 09:07:43 PM 38.5558 -120.2856 342° North 374 430 38,000  Level Oakland Center
Fri 09:08:44 PM 38.6767 -120.3333 343° North 378 435 38,000  Level Oakland Center
Fri 09:09:45 PM 38.7778 -120.3747 342° North 381 438 38,000  Level Oakland Center
Fri 09:10:47 PM 38.8792 -120.4164 342° North 384 442 38,000  Level Oakland Center
Fri 09:11:48 PM 38.9806 -120.4569 343° North 384 442 38,000  Level Oakland Center
Fri 09:12:49 PM 39.0822 -120.4989 342° North 384 442 38,000  Level Oakland Center
Fri 09:13:51 PM 39.1817 -120.5408 342° North 380 437 38,000  Level Oakland Center
Fri 09:14:52 PM 39.2831 -120.5831 342° North 382 440 38,000  Level Oakland Center
Fri 09:15:53 PM 39.3833 -120.6247 342° North 380 437 38,000  Level Oakland Center
Fri 09:16:55 PM 39.5036 -120.6733 343° North 379 436 38,000  Level Oakland Center
Fri 09:17:56 PM 39.6028 -120.7144 342° North 376 433 38,000  Level Oakland Center
Fri 09:18:57 PM 39.7031 -120.7569 342° North 378 435 38,000  Level Oakland Center
Fri 09:19:59 PM 39.8014 -120.7978 342° North 375 432 38,000  Level Oakland Center
Fri 09:21:00 PM 39.9011 -120.8400 342° North 376 433 38,000  Level Oakland Center
Fri 09:22:01 PM 40.0003 -120.8822 342° North 375 432 38,000  Level Oakland Center
Fri 09:23:02 PM 40.1089 -120.9261 343° North 379 436 38,000  Level Oakland Center
Fri 09:24:04 PM 40.2075 -120.9681 342° North 377 434 38,000  Level Oakland Center
Fri 09:25:05 PM 40.3050 -121.0117 341° North 374 430 38,000  Level Oakland Center
Fri 09:26:06 PM 40.4047 -121.0528 343° North 374 430 38,000  Level Oakland Center
Fri 09:27:08 PM 40.5036 -121.0953 342° North 374 430 38,000  Level Oakland Center
Fri 09:28:09 PM 40.6078 -121.1417 341° North 376 433 38,000  Level Oakland Center
Fri 09:28:35 PM 40.6486 -121.1561 345° North 374 430 38,000  Level Seattle Center
Fri 09:29:36 PM 40.7486 -121.1992 342° North 376 433 38,000  Level Seattle Center
Fri 09:30:37 PM 40.8478 -121.2433 341° North 376 433 38,000  Level Seattle Center
Fri 09:31:38 PM 40.9453 -121.2861 342° North 370 426 38,000  Level Seattle Center
Fri 09:32:39 PM 41.0633 -121.3375 342° North 371 427 38,000  Level Seattle Center
Fri 09:33:40 PM 41.1611 -121.3808 342° North 370 426 38,000  Level Seattle Center
Fri 09:34:17 PM 41.2181 -121.4078 340° North 366 421 38,000  Level Oakland Center
Fri 09:35:18 PM 41.3158 -121.4503 342° North 368 423 38,000  Level Oakland Center
Fri 09:36:19 PM 41.4131 -121.4936 342° North 369 425 38,000  Level Oakland Center
Fri 09:37:20 PM 41.5094 -121.5356 342° North 367 422 38,000  Level Oakland Center
Fri 09:37:43 PM 41.5483 -121.5517 343° North 367 422 38,000  Level Seattle Center
Fri 09:38:44 PM 41.6450 -121.5944 342° North 367 422 38,000  Level Seattle Center
Fri 09:39:45 PM 41.7417 -121.6381 341° North 368 423 38,000  Level Seattle Center
Fri 09:40:46 PM 41.8375 -121.6800 342° North 364 419 38,000  Level Seattle Center
Fri 09:41:47 PM 41.9342 -121.7231 342° North 368 423 38,000  Level Seattle Center
Fri 09:42:48 PM 42.0292 -121.7633 343° North 361 415 38,000  Level Seattle Center
Fri 09:43:49 PM 42.1442 -121.8169 341° North 367 422 38,000  Level Seattle Center
Fri 09:44:50 PM 42.2394 -121.8606 341° North 369 425 38,000  Level Seattle Center
Fri 09:45:50 PM 42.3356 -121.9033 342° North 365 420 38,000  Level Seattle Center
Fri 09:46:51 PM 42.4328 -121.9472 342° North 366 421 38,000  Level Seattle Center
Fri 09:47:52 PM 42.5292 -121.9914 341° North 364 419 38,000  Level Seattle Center
Fri 09:48:53 PM 42.6256 -122.0344 342° North 362 417 38,000  Level Seattle Center
Fri 09:49:54 PM 42.7217 -122.0775 342° North 360 414 38,000  Level Seattle Center
Fri 09:50:55 PM 42.8186 -122.1222 341° North 364 419 38,000  Level Seattle Center
Fri 09:51:56 PM 42.9175 -122.1675 341° North 371 427 38,000  Level Seattle Center
Fri 09:52:56 PM 43.0347 -122.2208 342° North 376 433 38,000  Level Seattle Center
Fri 09:53:57 PM 43.1356 -122.2700 340° North 381 438 38,000  Level Seattle Center
Fri 09:54:58 PM 43.2372 -122.3167 342° North 381 438 38,000  Level Seattle Center
Fri 09:55:59 PM 43.3383 -122.3650 341° North 381 438 38,000  Level Seattle Center
Fri 09:57:00 PM 43.4397 -122.4108 342° North 379 436 38,000  Level Seattle Center
Fri 09:58:01 PM 43.5400 -122.4592 341° North 380 437 38,000  Level Seattle Center
Fri 09:59:02 PM 43.6386 -122.5058 341° North 375 432 38,000  Level Seattle Center
Fri 10:00:02 PM 43.7392 -122.5536 341° North 380 437 38,000  Level Seattle Center
Fri 10:01:03 PM 43.8392 -122.6019 341° North 380 437 38,000 -148 Level Seattle Center
Fri 10:02:04 PM 43.9394 -122.6500 341° North 381 438 37,700 -1,525 Descending Seattle Center
Fri 10:03:05 PM 44.0375 -122.6969 341° North 374 430 34,900 -2,705 Descending Seattle Center
Fri 10:04:06 PM 44.1322 -122.7419 341° North 362 417 32,200 -2,852 Descending Seattle Center
Fri 10:05:07 PM 44.2625 -122.7408 360° North 396 456 29,100 -2,754 Descending Seattle Center
Fri 10:06:08 PM 44.3589 -122.7314 North 405 466 26,600 -2,557 Descending Seattle Center
Fri 10:07:09 PM 44.4706 -122.7208 North 405 466 23,900 -2,754 Descending Seattle Center
Fri 10:08:10 PM 44.5844 -122.7097 North 410 472 21,000 -3,172 Descending Seattle Center
Fri 10:08:36 PM 44.6519 -122.7067 North 412 474 19,300 -3,344 Descending Seattle Center
Fri 10:09:11 PM 44.7186 -122.6967 North 407 468 17,600 -2,818 Descending Seattle Center
Fri 10:09:42 PM 44.7769 -122.6931 North 388 447 16,200 -2,459 Descending Seattle Center
Fri 10:10:12 PM 44.8239 -122.6867 North 390 449 15,100 -2,459 Descending Seattle Center
Fri 10:10:43 PM 44.8783 -122.6797 North 361 415 13,700 -2,361 Descending Seattle Center
Fri 10:11:13 PM 44.9225 -122.6772 North 366 421 12,700 -1,791 Descending Seattle Center
Fri 10:11:50 PM 44.9828 -122.6711 North 343 395 11,700 -1,574 Descending Seattle Center
Fri 10:12:14 PM 45.0164 -122.6664 North 348 400 11,100 -1,400 Descending Seattle Center
Fri 10:12:50 PM 45.0714 -122.6597 North 314 361 10,300 -1,180 Descending Seattle Center
Fri 10:13:15 PM 45.1017 -122.6575 North 320 368 9,900 -1,091 Descending Seattle Center
Fri 10:13:45 PM 45.1456 -122.6511 North 287 330 9,300 -1,279 Descending Seattle Center
Fri 10:14:16 PM 45.1761 -122.6189 37° Northeast 308 354 8,600 -1,556 Descending Seattle Center
Fri 10:14:39 PM 45.2094 -122.5822 38° Northeast 315 362 7,900 -1,500 Descending Seattle Center
Fri 10:15:16 PM 45.2444 -122.5458 36° Northeast 311 358 7,100 -885 Descending Seattle Center
Fri 10:15:40 PM 45.2775 -122.5117 36° Northeast 299 344 7,000 -689 Descending Seattle Center
Fri 10:16:17 PM 45.3094 -122.4789 36° Northeast 291 335 6,400 -1,418 Descending Seattle Center
Fri 10:16:35 PM 45.3325 -122.4522 39° Northeast 266 306 5,700 -1,574 Descending Seattle Center
Fri 10:17:18 PM 45.3694 -122.4156 35° Northeast 275 316 4,800 -1,455 Descending Seattle Center
Fri 10:17:41 PM 45.3983 -122.3914 30° Northeast 252 290 4,100 -1,377 Descending Seattle Center
Fri 10:18:19 PM 45.4294 -122.3650 31° Northeast 256 295 3,400 -984 Descending Seattle Center
Fri 10:18:42 PM 45.4589 -122.3481 22° Northeast 207 238 3,100 -689 Descending Seattle Center
Fri 10:19:20 PM 45.4806 -122.3572 343° North 201 231 2,700 -590 Descending Seattle Center
Fri 10:19:43 PM 45.4994 -122.3775 323° Northwest 153 176 2,500 -197 Descending Seattle Center
Fri 10:20:21 PM 45.5133 -122.4064 304° West 142 163 2,500 -200 Level Seattle Center
Fri 10:20:43 PM 45.5147 -122.4206 278° West 113 130 2,300 -492 Descending Seattle Center
Fri 10:21:22 PM 45.5281 -122.4478 305° West 121 139 2,000 -295 Descending Seattle Center
Fri 10:21:44 PM 45.5319 -122.4628 290° West 122 140 2,000 -492 Level Seattle Center
Fri 10:22:23 PM 45.5436 -122.4908 301° West 121 139 1,500 -800 Descending Seattle Center
Fri 10:22:44 PM 45.5500 -122.5081 298° West 123 142 1,200 -689 Descending Seattle Center
Fri 10:23:24 PM 45.5603 -122.5333 300° West 122 140 800 -689 Descending Seattle Center
Fri 10:23:45 PM 45.5672 -122.5503 300° West 127 146 500 -393 Descending Seattle Center
Fri 10:24:25 PM 45.5758 -122.5714 300° West 123 142 400 -150 Descending Seattle Center

Login

Don't have an account? Register now (free) for customized features, flight alerts, and more!